Time;durP1;ratioP1;P1;durP2;ratioP2;P2;SDS_P1;SDS_P2;PMS_P1;PMS_P2;Temp;Humidity;BMP_temperature;BMP_pressure;BME280_temperature;BME280_humidity;BME280_pressure;Samples;Min_cycle;Max_cycle;Signal;HPM_P1;HPM_P2
2021/12/02 00:00:33;;;;;;;9.23;1.20;;;3.20;99.90;;;;;;4981504;28;20046;-79
2021/12/02 00:02:59;;;;;;;9.57;1.30;;;3.20;99.90;;;;;;4977316;28;20042;-78
2021/12/02 00:05:24;;;;;;;6.07;1.02;;;3.10;99.90;;;;;;4980221;28;20045;-78
2021/12/02 00:07:51;;;;;;;7.18;0.98;;;3.10;99.90;;;;;;4983656;28;20067;-78
2021/12/02 00:10:17;;;;;;;4.85;0.80;;;3.10;99.90;;;;;;4987727;28;20094;-78
2021/12/02 00:12:43;;;;;;;2.85;0.90;;;3.00;99.90;;;;;;4977128;28;20177;-78
2021/12/02 00:15:17;;;;;;;9.05;1.30;;;3.00;99.90;;;;;;4981258;28;20042;-78
2021/12/02 00:17:52;;;;;;;;;;;2.90;99.90;;;;;;4985601;28;20496;-78
2021/12/02 00:23:25;;;;;;;7.78;1.17;;;2.90;99.90;;;;;;4989004;28;20349;-78
2021/12/02 00:25:52;;;;;;;6.38;1.50;;;2.80;99.90;;;;;;4980090;28;20050;-78
2021/12/02 00:28:18;;;;;;;5.40;1.08;;;2.80;99.90;;;;;;4984584;28;20076;-78
2021/12/02 00:30:44;;;;;;;9.57;1.40;;;2.80;99.90;;;;;;4972941;28;20035;-79
2021/12/02 00:33:11;;;;;;;9.10;1.30;;;2.80;99.90;;;;;;4974343;28;20446;-78
2021/12/02 00:35:36;;;;;;;9.98;1.30;;;2.80;99.90;;;;;;4991973;28;20124;-77
2021/12/02 00:38:02;;;;;;;6.65;1.35;;;2.90;99.90;;;;;;4988771;28;20077;-78
2021/12/02 00:40:28;;;;;;;11.13;1.60;;;2.90;99.90;;;;;;4980617;28;20038;-78
2021/12/02 00:42:56;;;;;;;11.77;1.50;;;3.00;99.90;;;;;;4983429;28;20050;-78
2021/12/02 00:45:21;;;;;;;9.07;1.85;;;3.10;99.90;;;;;;4983450;28;20117;-79
2021/12/02 00:47:47;;;;;;;5.07;1.20;;;3.20;99.90;;;;;;4990491;28;20074;-78
2021/12/02 00:50:13;;;;;;;6.22;1.35;;;3.40;99.90;;;;;;4989588;28;20074;-79
2021/12/02 00:52:40;;;;;;;9.80;1.30;;;3.50;99.90;;;;;;4988210;28;20542;-78
2021/12/02 00:55:07;;;;;;;7.15;1.55;;;3.50;99.90;;;;;;4963368;28;20042;-78
2021/12/02 00:57:34;;;;;;;4.45;1.00;;;3.60;99.90;;;;;;4961860;28;20053;-79
2021/12/02 01:00:03;;;;;;;6.53;1.08;;;3.60;99.90;;;;;;4975914;28;20138;-78
2021/12/02 01:02:31;;;;;;;5.63;0.80;;;3.50;99.90;;;;;;4983293;28;20047;-79
2021/12/02 01:04:57;;;;;;;4.78;0.77;;;3.60;99.90;;;;;;4987177;28;20049;-77
2021/12/02 01:07:22;;;;;;;2.03;0.50;;;3.50;99.90;;;;;;4980519;28;20034;-78
2021/12/02 01:09:49;;;;;;;3.30;0.57;;;3.50;99.90;;;;;;4988614;28;20202;-78
2021/12/02 01:12:16;;;;;;;3.47;0.43;;;3.50;99.90;;;;;;4977109;28;20386;-78
2021/12/02 01:14:44;;;;;;;2.03;0.43;;;3.50;99.90;;;;;;4985752;28;20042;-78
2021/12/02 01:17:09;;;;;;;1.45;0.40;;;3.70;99.90;;;;;;4990312;28;20054;-78
2021/12/02 01:19:35;;;;;;;3.08;0.40;;;3.90;99.90;;;;;;4987120;28;20039;-78
2021/12/02 01:22:01;;;;;;;2.58;0.32;;;3.90;99.90;;;;;;4995702;28;20117;-77
2021/12/02 01:24:30;;;;;;;3.28;0.70;;;3.90;99.90;;;;;;4989650;28;20042;-78
2021/12/02 01:26:58;;;;;;;7.05;0.77;;;3.80;99.90;;;;;;4984003;28;20515;-78
2021/12/02 01:29:25;;;;;;;3.55;0.80;;;3.70;99.90;;;;;;4987237;28;20114;-78
2021/12/02 01:31:53;;;;;;;4.28;0.70;;;3.50;99.90;;;;;;4999728;28;20672;-76
2021/12/02 01:34:25;;;;;;;3.65;0.60;;;3.30;99.90;;;;;;4988697;28;20053;-77
2021/12/02 01:36:53;;;;;;;4.15;0.70;;;3.20;99.90;;;;;;4977497;28;20054;-77
2021/12/02 01:39:20;;;;;;;2.00;0.63;;;3.00;99.90;;;;;;4981638;28;20491;-77
2021/12/02 01:41:48;;;;;;;6.07;1.38;;;3.00;99.90;;;;;;4990251;28;20449;-77
2021/12/02 01:44:16;;;;;;;3.10;0.50;;;2.90;99.90;;;;;;4984706;28;20393;-77
2021/12/02 01:46:42;;;;;;;4.28;0.80;;;2.90;99.90;;;;;;4989977;28;20492;-77
2021/12/02 01:49:10;;;;;;;4.45;0.70;;;2.80;99.90;;;;;;4964858;28;20030;-77
2021/12/02 01:51:40;;;;;;;3.78;0.63;;;2.80;99.90;;;;;;4976336;28;20043;-77
2021/12/02 01:54:09;;;;;;;4.90;0.75;;;2.80;99.90;;;;;;4976276;28;20042;-77
2021/12/02 01:56:47;;;;;;;7.10;1.15;;;2.90;99.90;;;;;;4990122;28;20148;-78
2021/12/02 01:59:16;;;;;;;7.63;1.13;;;3.00;99.90;;;;;;4967881;28;20053;-77
2021/12/02 02:01:44;;;;;;;4.78;0.68;;;3.00;99.90;;;;;;4979755;28;20108;-77
2021/12/02 02:04:10;;;;;;;6.80;1.08;;;3.00;99.90;;;;;;4978790;28;20581;-78
2021/12/02 02:06:55;;;;;;;6.25;0.93;;;3.00;99.90;;;;;;4990344;28;20088;-78
2021/12/02 02:09:22;;;;;;;4.07;0.65;;;3.00;99.90;;;;;;4974566;28;20054;-78
2021/12/02 02:11:48;;;;;;;6.32;0.80;;;3.00;99.90;;;;;;4978665;28;20129;-76
2021/12/02 02:14:14;;;;;;;3.20;0.70;;;2.90;99.90;;;;;;4980377;28;20541;-79
2021/12/02 02:16:41;;;;;;;3.63;0.80;;;2.90;99.90;;;;;;4968553;28;20042;-78
2021/12/02 02:19:09;;;;;;;3.92;0.65;;;2.80;99.90;;;;;;4989278;28;20066;-77
2021/12/02 02:21:36;;;;;;;3.38;0.82;;;2.80;99.90;;;;;;4985255;28;20049;-77
2021/12/02 02:24:03;;;;;;;3.33;0.63;;;2.80;99.90;;;;;;4977520;28;20069;-78
2021/12/02 02:26:35;;;;;;;4.03;0.65;;;2.70;99.90;;;;;;4975064;28;20031;-79
2021/12/02 02:29:01;;;;;;;3.13;0.70;;;2.70;99.90;;;;;;4987464;28;20125;-78
2021/12/02 02:31:29;;;;;;;5.43;0.90;;;2.70;99.90;;;;;;4983023;28;20648;-77
2021/12/02 02:33:55;;;;;;;5.25;1.38;;;2.70;99.90;;;;;;4995182;28;20038;-78
2021/12/02 02:36:24;;;;;;;4.47;0.82;;;2.70;99.90;;;;;;4981169;28;20038;-78
2021/12/02 02:38:56;;;;;;;5.75;0.70;;;2.70;99.90;;;;;;4983007;28;20042;-78
2021/12/02 02:41:28;;;;;;;3.60;0.73;;;2.60;99.90;;;;;;4974279;28;20415;-77
2021/12/02 02:43:57;;;;;;;5.95;0.70;;;2.70;99.90;;;;;;4988877;28;20038;-78
2021/12/02 02:46:28;;;;;;;4.63;0.60;;;2.70;99.90;;;;;;4980468;28;20074;-77
2021/12/02 02:48:53;;;;;;;2.97;0.50;;;2.80;99.90;;;;;;4980491;28;20511;-77
2021/12/02 02:51:19;;;;;;;5.05;0.90;;;2.70;99.90;;;;;;4976588;28;20125;-78
2021/12/02 02:53:53;;;;;;;5.55;0.70;;;2.80;99.90;;;;;;4977269;28;20039;-77
2021/12/02 02:56:21;;;;;;;5.30;0.70;;;2.80;99.90;;;;;;4980316;28;20535;-77
2021/12/02 02:58:59;;;;;;;2.22;0.50;;;2.80;99.90;;;;;;4960038;28;20077;-78
2021/12/02 03:04:10;;;;;;;5.45;0.63;;;2.90;99.90;;;;;;4973875;28;20050;-77
2021/12/02 03:17:08;;;;;;;0.85;0.30;;;3.00;99.90;;;;;;4977989;28;20043;-77
2021/12/02 03:19:35;;;;;;;1.75;0.38;;;3.00;99.90;;;;;;4983050;28;20073;-78
2021/12/02 03:22:01;;;;;;;2.42;0.40;;;2.90;99.90;;;;;;4991896;28;20057;-77
2021/12/02 03:24:27;;;;;;;0.93;0.28;;;2.80;99.90;;;;;;4990399;28;20035;-77
2021/12/02 03:26:53;;;;;;;1.95;0.25;;;2.70;99.90;;;;;;4979527;28;21137;-77
2021/12/02 03:29:18;;;;;;;1.33;0.28;;;2.60;99.90;;;;;;4991880;28;20035;-78
2021/12/02 03:31:44;;;;;;;1.92;0.40;;;2.50;99.90;;;;;;4987363;28;20031;-77
2021/12/02 03:34:10;;;;;;;2.10;0.40;;;2.40;99.90;;;;;;4981266;28;20576;-77
2021/12/02 03:36:37;;;;;;;0.87;0.20;;;2.30;99.90;;;;;;4983247;28;20049;-78
2021/12/02 03:39:05;;;;;;;2.50;0.60;;;2.20;99.90;;;;;;4978374;28;20039;-77
2021/12/02 03:41:32;;;;;;;1.33;0.20;;;2.10;99.90;;;;;;4989609;28;20113;-78
2021/12/02 03:43:57;;;;;;;2.08;0.30;;;2.00;99.90;;;;;;4989077;28;20054;-77
2021/12/02 03:46:24;;;;;;;3.58;0.30;;;2.00;99.90;;;;;;4980424;28;20053;-77
2021/12/02 03:48:52;;;;;;;0.97;0.20;;;1.90;99.90;;;;;;4993499;28;20054;-77
2021/12/02 03:51:18;;;;;;;2.20;0.30;;;1.90;99.90;;;;;;4989567;28;20100;-77
2021/12/02 03:53:44;;;;;;;0.67;0.20;;;1.80;99.90;;;;;;4974090;28;20485;-77
2021/12/02 03:56:10;;;;;;;1.85;0.30;;;1.80;99.90;;;;;;4986142;28;20050;-77
2021/12/02 03:58:38;;;;;;;3.25;0.40;;;1.80;99.90;;;;;;4989806;28;20058;-78
2021/12/02 04:01:04;;;;;;;2.90;0.50;;;1.70;99.90;;;;;;4982279;28;20093;-77
2021/12/02 04:03:30;;;;;;;3.88;0.43;;;1.70;99.90;;;;;;4973279;28;20459;-78
2021/12/02 04:05:56;;;;;;;1.10;0.40;;;1.70;99.90;;;;;;4975385;28;20142;-78
2021/12/02 04:08:29;;;;;;;1.77;0.55;;;1.60;99.90;;;;;;4977002;28;20055;-77
2021/12/02 04:11:00;;;;;;;3.15;0.30;;;1.60;99.90;;;;;;4984461;28;20042;-78
2021/12/02 04:13:31;;;;;;;1.55;0.40;;;1.60;99.90;;;;;;4992105;28;20042;-78
2021/12/02 04:16:01;;;;;;;2.28;0.40;;;1.50;99.90;;;;;;4986696;28;20486;-78
2021/12/02 04:18:27;;;;;;;1.20;0.20;;;1.50;99.90;;;;;;4976162;28;20042;-78
2021/12/02 04:20:52;;;;;;;2.08;0.40;;;1.50;99.90;;;;;;4973730;28;20053;-78
2021/12/02 04:23:18;;;;;;;2.55;0.35;;;1.50;99.90;;;;;;4987215;28;20048;-78
2021/12/02 04:25:44;;;;;;;2.40;0.30;;;1.40;99.90;;;;;;4991484;28;20419;-78
2021/12/02 04:28:09;;;;;;;1.53;0.40;;;1.50;99.90;;;;;;4980349;28;20046;-78
2021/12/02 04:30:35;;;;;;;1.80;0.50;;;1.40;99.90;;;;;;4973228;28;20066;-78
2021/12/02 04:33:01;;;;;;;3.77;0.40;;;1.50;99.90;;;;;;4984072;28;20046;-78
2021/12/02 04:35:27;;;;;;;2.90;0.50;;;1.50;99.90;;;;;;4990951;28;20043;-77
2021/12/02 04:37:53;;;;;;;1.27;0.40;;;1.60;99.90;;;;;;4981115;28;20129;-78
2021/12/02 04:40:21;;;;;;;2.13;0.40;;;1.60;99.90;;;;;;4980162;28;20069;-78
2021/12/02 04:42:48;;;;;;;3.43;0.50;;;1.60;99.90;;;;;;4991736;28;20046;-77
2021/12/02 04:45:14;;;;;;;1.60;0.40;;;1.60;99.90;;;;;;4982184;28;20039;-78
2021/12/02 04:47:40;;;;;;;0.70;0.27;;;1.70;99.90;;;;;;4981293;28;20065;-78
2021/12/02 04:50:08;;;;;;;3.17;0.50;;;1.80;99.90;;;;;;4975744;28;20413;-77
2021/12/02 04:52:34;;;;;;;1.50;0.30;;;1.80;99.90;;;;;;4971270;28;20035;-77
2021/12/02 04:55:00;;;;;;;2.10;0.40;;;1.90;99.90;;;;;;4974748;28;20039;-78
2021/12/02 04:57:25;;;;;;;1.63;0.30;;;1.90;99.90;;;;;;4955674;28;20089;-77
2021/12/02 04:59:51;;;;;;;2.67;0.37;;;2.10;99.90;;;;;;4965688;28;20105;-76
2021/12/02 05:02:16;;;;;;;2.40;0.40;;;2.10;99.90;;;;;;4982901;28;20034;-77
2021/12/02 05:04:42;;;;;;;1.37;0.40;;;2.00;99.90;;;;;;4986128;28;20096;-77
2021/12/02 05:07:07;;;;;;;2.17;0.40;;;2.00;99.90;;;;;;4974060;28;20034;-78
2021/12/02 05:09:33;;;;;;;2.20;0.30;;;2.10;99.90;;;;;;4997245;28;20403;-77
2021/12/02 05:11:59;;;;;;;3.88;0.50;;;2.10;99.90;;;;;;4964111;28;20066;-78
2021/12/02 05:14:24;;;;;;;1.60;0.30;;;2.10;99.90;;;;;;4954951;28;20035;-78
2021/12/02 05:16:50;;;;;;;2.17;0.40;;;2.10;99.90;;;;;;4975603;28;20057;-77
2021/12/02 05:19:15;;;;;;;4.68;0.40;;;2.10;99.90;;;;;;4974480;28;20182;-77
2021/12/02 05:21:41;;;;;;;3.80;0.43;;;2.20;99.90;;;;;;4974646;28;20038;-78
2021/12/02 05:24:06;;;;;;;2.07;0.40;;;2.20;99.90;;;;;;4954716;28;20086;-78
2021/12/02 05:26:32;;;;;;;4.22;0.40;;;2.20;99.90;;;;;;4978249;28;20038;-77
2021/12/02 05:28:58;;;;;;;2.25;0.50;;;2.20;99.90;;;;;;4989105;28;20048;-76
2021/12/02 05:31:23;;;;;;;3.83;0.40;;;2.20;99.90;;;;;;4973202;28;20042;-77
2021/12/02 05:33:49;;;;;;;0.80;0.20;;;2.20;99.90;;;;;;4976335;28;20074;-77
2021/12/02 05:36:15;;;;;;;0.63;0.30;;;2.10;99.90;;;;;;4978383;28;20042;-77
2021/12/02 05:38:40;;;;;;;1.73;0.40;;;2.00;99.90;;;;;;4972567;28;20077;-77
2021/12/02 05:41:06;;;;;;;0.60;0.20;;;1.90;99.90;;;;;;4974428;28;20070;-76
2021/12/02 05:43:33;;;;;;;2.13;0.40;;;1.70;99.90;;;;;;4990365;28;20049;-77
2021/12/02 05:45:58;;;;;;;0.73;0.30;;;1.80;99.90;;;;;;4988920;28;20077;-79
2021/12/02 05:48:24;;;;;;;1.50;0.23;;;1.50;99.90;;;;;;4994057;28;20073;-79
2021/12/02 05:50:50;;;;;;;1.33;0.30;;;1.40;99.90;;;;;;4957769;28;20137;-77
2021/12/02 05:53:16;;;;;;;1.13;0.40;;;1.30;99.90;;;;;;4978490;28;20035;-78
2021/12/02 05:55:42;;;;;;;1.13;0.27;;;1.20;99.90;;;;;;4955282;28;20531;-78
2021/12/02 05:58:10;;;;;;;1.03;0.37;;;1.30;99.90;;;;;;4976779;28;20051;-78
2021/12/02 06:00:36;;;;;;;2.50;0.20;;;1.30;99.90;;;;;;4972269;28;20094;-78
2021/12/02 06:03:02;;;;;;;1.13;0.20;;;1.30;99.90;;;;;;4973602;28;20047;-79
2021/12/02 06:05:28;;;;;;;2.00;0.30;;;1.30;99.90;;;;;;4975438;28;20385;-78
2021/12/02 06:07:57;;;;;;;1.07;0.53;;;1.30;99.90;;;;;;4975434;28;20100;-78
2021/12/02 06:10:23;;;;;;;1.90;0.50;;;1.20;99.90;;;;;;4976044;28;20066;-77
2021/12/02 06:12:49;;;;;;;6.17;0.90;;;1.20;99.90;;;;;;4975366;28;20550;-78
2021/12/02 06:15:15;;;;;;;3.00;0.43;;;1.30;99.90;;;;;;4977072;28;20070;-78
2021/12/02 06:17:42;;;;;;;1.93;0.57;;;1.30;99.90;;;;;;4978565;28;20078;-78
2021/12/02 06:20:10;;;;;;;0.70;0.40;;;1.30;99.90;;;;;;4986095;28;20117;-78
2021/12/02 06:22:36;;;;;;;2.30;0.70;;;1.30;99.90;;;;;;4994758;28;20561;-79
2021/12/02 06:27:42;;;;;;;4.50;0.80;;;1.40;99.90;;;;;;4979787;28;20042;-78
2021/12/02 06:30:08;;;;;;;1.30;0.70;;;1.40;99.90;;;;;;4986852;28;20042;-78
2021/12/02 06:32:33;;;;;;;3.30;0.90;;;1.40;99.90;;;;;;4984617;28;20041;-77
2021/12/02 06:34:59;;;;;;;3.20;0.80;;;1.40;99.90;;;;;;4981247;28;20118;-77
2021/12/02 06:37:25;;;;;;;3.57;0.70;;;1.50;99.90;;;;;;4982432;28;20471;-79
2021/12/02 06:39:51;;;;;;;1.88;0.82;;;1.50;99.90;;;;;;4983578;28;20107;-79
2021/12/02 06:42:17;;;;;;;1.00;0.63;;;1.50;99.90;;;;;;4981153;28;20465;-79
2021/12/02 06:44:43;;;;;;;0.93;0.50;;;1.50;99.90;;;;;;4978613;28;20042;-78
2021/12/02 06:47:09;;;;;;;3.80;0.70;;;1.50;99.90;;;;;;4985255;28;20088;-79
2021/12/02 06:49:35;;;;;;;2.50;0.80;;;1.50;99.90;;;;;;4974231;28;20040;-78
2021/12/02 06:52:01;;;;;;;1.77;0.70;;;1.50;99.90;;;;;;4979218;28;20030;-79
2021/12/02 06:54:27;;;;;;;2.42;0.65;;;1.50;99.90;;;;;;4987434;28;20046;-79
2021/12/02 06:56:53;;;;;;;2.27;0.67;;;1.60;99.90;;;;;;4995445;28;20056;-79
2021/12/02 06:59:19;;;;;;;2.03;0.60;;;1.60;99.90;;;;;;4975405;28;20106;-79
2021/12/02 07:01:46;;;;;;;2.67;0.60;;;1.60;99.90;;;;;;4980132;28;20043;-79
2021/12/02 07:04:12;;;;;;;3.03;0.95;;;1.60;99.90;;;;;;4959263;28;20047;-78
2021/12/02 07:06:38;;;;;;;2.73;0.60;;;1.70;99.90;;;;;;4981303;28;20031;-79
2021/12/02 07:09:05;;;;;;;4.53;0.70;;;1.60;99.90;;;;;;4986500;28;20042;-78
2021/12/02 07:11:32;;;;;;;4.65;0.90;;;1.70;99.90;;;;;;4980992;28;20035;-78
2021/12/02 07:14:03;;;;;;;2.28;0.85;;;1.70;99.90;;;;;;4983127;28;20406;-78
2021/12/02 07:16:28;;;;;;;3.03;0.80;;;1.70;99.90;;;;;;4981297;28;20043;-79
2021/12/02 07:18:56;;;;;;;1.90;0.70;;;1.70;99.90;;;;;;4980874;28;20050;-79
2021/12/02 07:21:24;;;;;;;5.33;0.87;;;1.70;99.90;;;;;;4977173;28;20147;-79
2021/12/02 07:23:50;;;;;;;3.83;1.00;;;1.70;99.90;;;;;;4982106;28;20038;-79
2021/12/02 07:26:16;;;;;;;1.37;0.60;;;1.60;99.90;;;;;;4982102;28;20359;-79
2021/12/02 07:28:43;;;;;;;2.60;0.50;;;1.60;99.90;;;;;;4976205;28;20026;-79
2021/12/02 07:31:10;;;;;;;4.80;0.63;;;1.60;99.90;;;;;;4975692;28;20126;-78
2021/12/02 07:33:38;;;;;;;1.70;1.00;;;1.60;99.90;;;;;;4975884;28;20062;-79
2021/12/02 07:36:05;;;;;;;2.73;0.87;;;1.60;99.90;;;;;;4982985;28;20043;-79
2021/12/02 07:38:31;;;;;;;2.30;1.30;;;1.60;99.90;;;;;;4997446;28;20045;-79
2021/12/02 07:41:04;;;;;;;2.30;1.20;;;1.50;99.90;;;;;;4985764;28;20126;-79
2021/12/02 07:43:35;;;;;;;1.95;1.40;;;1.50;99.90;;;;;;4980315;28;20042;-79
2021/12/02 07:46:02;;;;;;;3.93;1.57;;;1.50;99.90;;;;;;4971634;28;20061;-79
2021/12/02 07:48:28;;;;;;;2.57;1.23;;;1.50;99.90;;;;;;4984451;28;20035;-79
2021/12/02 07:51:00;;;;;;;2.90;1.73;;;1.50;99.90;;;;;;4982927;28;20039;-79
2021/12/02 07:53:27;;;;;;;3.63;1.43;;;1.50;99.90;;;;;;4983959;28;20053;-79
2021/12/02 07:55:54;;;;;;;2.73;1.50;;;1.50;99.90;;;;;;4990644;28;20053;-79
2021/12/02 07:58:22;;;;;;;2.87;1.60;;;1.50;99.90;;;;;;4988990;28;20440;-79
2021/12/02 08:00:48;;;;;;;2.23;1.43;;;1.50;99.90;;;;;;4988531;28;20050;-79
2021/12/02 08:03:14;;;;;;;4.20;2.03;;;1.50;99.90;;;;;;4974850;28;20058;-79
2021/12/02 08:05:40;;;;;;;4.50;1.90;;;1.40;99.90;;;;;;4985921;28;20038;-79
2021/12/02 08:08:06;;;;;;;4.30;2.20;;;1.40;99.90;;;;;;4989379;28;20492;-79
2021/12/02 08:10:31;;;;;;;3.00;1.77;;;1.40;99.90;;;;;;4987000;28;20049;-79
2021/12/02 08:12:59;;;;;;;3.60;2.03;;;1.40;99.90;;;;;;4992974;28;20073;-79
2021/12/02 08:15:27;;;;;;;5.17;1.93;;;1.40;99.90;;;;;;4990101;28;20104;-78
2021/12/02 08:17:53;;;;;;;5.30;1.87;;;1.40;99.90;;;;;;4976566;28;20528;-79
2021/12/02 08:20:21;;;;;;;2.97;2.00;;;1.50;99.90;;;;;;4988250;28;20504;-79
2021/12/02 08:22:47;;;;;;;4.30;1.90;;;1.40;99.90;;;;;;4949766;28;20051;-79
2021/12/02 08:25:15;;;;;;;3.37;1.70;;;1.50;99.90;;;;;;4967993;28;20088;-79
2021/12/02 08:27:41;;;;;;;3.43;1.70;;;1.50;99.90;;;;;;4957664;28;20041;-79
2021/12/02 08:30:10;;;;;;;6.67;1.80;;;1.50;99.90;;;;;;4957687;28;20043;-79
2021/12/02 08:32:38;;;;;;;4.33;1.60;;;1.60;99.90;;;;;;4979203;28;20440;-78
2021/12/02 08:35:04;;;;;;;3.63;1.60;;;1.60;99.90;;;;;;4985343;28;20047;-78
2021/12/02 08:37:32;;;;;;;2.17;1.47;;;1.70;99.90;;;;;;4981540;28;20049;-79
2021/12/02 08:40:00;;;;;;;4.87;1.93;;;1.80;99.90;;;;;;4986909;28;20133;-79
2021/12/02 08:42:27;;;;;;;3.10;1.50;;;1.90;99.90;;;;;;4989206;28;20069;-79
2021/12/02 08:44:54;;;;;;;4.50;2.00;;;2.00;99.90;;;;;;4996705;28;20039;-78
2021/12/02 08:47:22;;;;;;;2.30;1.50;;;2.10;99.90;;;;;;4961342;28;20064;-79
2021/12/02 08:49:53;;;;;;;2.80;1.43;;;2.20;99.90;;;;;;4977886;28;20038;-78
2021/12/02 08:52:20;;;;;;;4.05;1.50;;;2.20;99.90;;;;;;4972511;28;20046;-78
2021/12/02 08:54:46;;;;;;;3.40;1.50;;;2.30;99.90;;;;;;4976889;28;20057;-78
2021/12/02 08:57:12;;;;;;;3.25;1.45;;;2.40;99.90;;;;;;4986935;28;20125;-78
2021/12/02 08:59:37;;;;;;;3.30;1.30;;;2.40;99.90;;;;;;4982078;28;20049;-78
2021/12/02 09:02:03;;;;;;;6.22;1.23;;;2.50;99.90;;;;;;4989284;28;20048;-78
2021/12/02 09:04:28;;;;;;;3.00;1.10;;;2.60;99.90;;;;;;4982145;28;20046;-77
2021/12/02 09:06:54;;;;;;;5.53;1.20;;;2.50;99.90;;;;;;4993192;28;20463;-77
2021/12/02 09:09:19;;;;;;;2.55;1.40;;;2.50;99.90;;;;;;4979149;28;20559;-77
2021/12/02 09:11:45;;;;;;;3.03;1.33;;;2.40;99.90;;;;;;4982258;28;20046;-77
2021/12/02 09:14:10;;;;;;;4.30;1.30;;;2.40;99.90;;;;;;4956697;28;20130;-77
2021/12/02 09:16:37;;;;;;;3.22;1.33;;;2.40;99.90;;;;;;4979151;28;20037;-77
2021/12/02 09:19:03;;;;;;;2.17;1.27;;;2.40;99.90;;;;;;4972650;28;20133;-76
2021/12/02 09:21:28;;;;;;;4.75;1.67;;;2.40;99.90;;;;;;4978546;28;20544;-78
2021/12/02 09:23:54;;;;;;;4.30;1.60;;;2.40;99.90;;;;;;4993552;28;20102;-77
2021/12/02 09:26:20;;;;;;;6.82;1.50;;;2.50;99.90;;;;;;4979292;28;20039;-76
2021/12/02 09:28:52;;;;;;;5.15;1.35;;;2.50;99.90;;;;;;4979117;28;20046;-77
2021/12/02 09:31:18;;;;;;;3.90;1.20;;;2.50;99.90;;;;;;4984186;28;20118;-76
2021/12/02 09:33:44;;;;;;;5.85;1.20;;;2.50;99.90;;;;;;4980636;28;20042;-76
2021/12/02 09:36:09;;;;;;;2.72;1.15;;;2.50;99.90;;;;;;4988872;28;20061;-77
2021/12/02 09:38:35;;;;;;;2.83;1.10;;;2.50;99.90;;;;;;4983656;28;20069;-76
2021/12/02 09:41:04;;;;;;;5.78;2.33;;;2.50;99.90;;;;;;4976616;28;20069;-76
2021/12/02 09:43:30;;;;;;;7.60;2.97;;;2.40;99.90;;;;;;4992725;28;20053;-76
2021/12/02 09:45:56;;;;;;;3.35;2.60;;;2.40;99.90;;;;;;4992156;28;20038;-77
2021/12/02 09:48:22;;;;;;;3.45;1.63;;;2.40;99.90;;;;;;4959377;28;20041;-77
2021/12/02 09:50:54;;;;;;;2.50;1.30;;;2.50;99.90;;;;;;4977477;28;20046;-76
2021/12/02 09:53:24;;;;;;;2.10;1.00;;;2.60;99.90;;;;;;4977135;28;20039;-76
2021/12/02 09:56:03;;;;;;;3.10;1.40;;;2.80;99.90;;;;;;4981600;28;20050;-76
2021/12/02 09:58:29;;;;;;;4.05;1.08;;;3.10;99.90;;;;;;4993228;28;20053;-76
2021/12/02 10:01:05;;;;;;;3.50;1.00;;;3.20;99.90;;;;;;4978368;28;20046;-77
2021/12/02 10:03:33;;;;;;;4.45;0.80;;;3.10;99.90;;;;;;4986285;28;20092;-76
2021/12/02 10:06:14;;;;;;;1.60;0.40;;;3.00;99.90;;;;;;4976190;28;20091;-75
2021/12/02 10:09:35;;;;;;;2.05;0.70;;;2.60;99.90;;;;;;4984217;28;20088;-74
2021/12/02 10:11:49;;;;;;;2.08;0.80;;;2.30;99.90;;;;;;4970988;28;20053;-72
2021/12/02 10:14:34;;;;;;;4.15;0.93;;;1.90;99.90;;;;;;4965116;28;20054;-69
2021/12/02 10:17:15;;;;;;;1.80;0.88;;;1.80;99.90;;;;;;4975546;28;20038;-69
2021/12/02 10:23:04;;;;;;;3.42;0.90;;;1.60;99.90;;;;;;4979788;28;20039;-69
2021/12/02 10:25:32;;;;;;;1.80;1.10;;;1.60;99.90;;;;;;4987363;28;20039;-69
2021/12/02 10:28:10;;;;;;;2.78;0.90;;;1.60;99.90;;;;;;4979707;28;20043;-70
2021/12/02 10:30:45;;;;;;;2.70;1.02;;;1.60;99.90;;;;;;4988994;28;20049;-70
2021/12/02 10:33:12;;;;;;;2.43;1.00;;;1.60;99.90;;;;;;4981654;28;20034;-70
2021/12/02 10:35:46;;;;;;;3.10;1.20;;;1.60;99.90;;;;;;4980000;28;20511;-71
2021/12/02 10:38:32;;;;;;;1.73;1.10;;;1.50;99.90;;;;;;4981288;28;20043;-71
2021/12/02 10:41:04;;;;;;;2.50;1.33;;;1.40;99.90;;;;;;4973054;28;20038;-71
2021/12/02 10:43:30;;;;;;;4.20;1.33;;;1.40;99.90;;;;;;4974830;28;20122;-71
2021/12/02 10:46:18;;;;;;;4.43;2.13;;;1.40;99.90;;;;;;4989594;28;20132;-71
2021/12/02 10:48:49;;;;;;;2.63;1.27;;;1.40;99.90;;;;;;4980702;28;20093;-71
2021/12/02 10:51:51;;;;;;;4.50;2.53;;;1.30;99.90;;;;;;4988474;28;20034;-71
2021/12/02 10:54:24;;;;;;;3.53;1.70;;;1.30;99.90;;;;;;4968321;28;20046;-74
2021/12/02 10:57:07;;;;;;;3.63;1.70;;;1.30;99.90;;;;;;4969293;28;20401;-74
2021/12/02 10:59:43;;;;;;;3.57;1.00;;;1.30;99.90;;;;;;5005806;28;20046;-74
2021/12/02 11:02:24;;;;;;;2.27;1.10;;;1.30;99.90;;;;;;4975097;28;20073;-73
2021/12/02 11:05:00;;;;;;;4.27;1.67;;;1.30;99.90;;;;;;4959431;28;20047;-73
2021/12/02 11:07:35;;;;;;;2.93;1.20;;;1.40;99.90;;;;;;4982391;28;20039;-73
2021/12/02 11:10:04;;;;;;;4.27;2.37;;;1.50;99.90;;;;;;4976648;28;20077;-72
2021/12/02 11:12:32;;;;;;;3.07;1.60;;;1.50;99.90;;;;;;4982453;28;20117;-72
2021/12/02 11:15:09;;;;;;;4.33;1.20;;;1.50;99.90;;;;;;4983453;28;20065;-73
2021/12/02 11:17:53;;;;;;;3.17;2.30;;;1.40;99.90;;;;;;4962292;28;20038;-73
2021/12/02 11:20:34;;;;;;;2.50;1.57;;;1.40;99.90;;;;;;4984167;28;20034;-73
2021/12/02 11:23:16;;;;;;;3.30;1.90;;;1.40;99.90;;;;;;4974107;28;20170;-73
2021/12/02 11:25:59;;;;;;;2.87;1.80;;;1.40;99.90;;;;;;4977567;28;20429;-74
2021/12/02 11:28:29;;;;;;;2.73;1.20;;;1.50;99.90;;;;;;4960767;28;20400;-72
2021/12/02 11:30:56;;;;;;;4.13;1.90;;;1.50;99.90;;;;;;4984483;28;20373;-73
2021/12/02 11:33:29;;;;;;;2.30;1.00;;;1.50;99.90;;;;;;4956619;28;20035;-73
2021/12/02 11:35:55;;;;;;;3.55;1.10;;;1.50;99.90;;;;;;4984078;28;20038;-74
2021/12/02 11:38:25;;;;;;;3.83;0.97;;;1.50;99.90;;;;;;4980491;28;20092;-74
2021/12/02 11:40:59;;;;;;;3.27;0.67;;;1.50;99.90;;;;;;4982141;28;20061;-74
2021/12/02 11:43:28;;;;;;;4.13;1.20;;;1.50;99.90;;;;;;4974219;28;20050;-73
2021/12/02 11:45:55;;;;;;;2.40;1.00;;;1.40;99.90;;;;;;4977407;28;20515;-74
2021/12/02 11:48:24;;;;;;;3.43;1.30;;;1.50;99.90;;;;;;4981372;28;20045;-73
2021/12/02 11:50:55;;;;;;;2.73;1.40;;;1.60;99.90;;;;;;4973261;28;20136;-74
2021/12/02 11:53:22;;;;;;;5.77;2.03;;;1.50;99.90;;;;;;4966490;28;20042;-75
2021/12/02 11:55:54;;;;;;;2.60;1.40;;;1.50;99.90;;;;;;4975830;28;20041;-74
2021/12/02 11:58:20;;;;;;;4.17;1.60;;;1.50;99.90;;;;;;4980343;28;20393;-75
2021/12/02 12:00:47;;;;;;;2.87;1.60;;;1.40;99.90;;;;;;4971814;28;20054;-75
2021/12/02 12:03:36;;;;;;;2.60;1.37;;;1.40;99.90;;;;;;4986841;28;20444;-75
2021/12/02 12:06:13;;;;;;;3.23;1.37;;;1.40;99.90;;;;;;4979951;28;20043;-75
2021/12/02 12:08:42;;;;;;;3.03;1.37;;;1.40;99.90;;;;;;4983844;28;20416;-75
2021/12/02 12:11:27;;;;;;;2.77;1.00;;;1.30;99.90;;;;;;4982235;28;20034;-75
2021/12/02 12:13:57;;;;;;;2.13;0.90;;;1.40;99.90;;;;;;4987901;28;20082;-75
2021/12/02 12:16:38;;;;;;;2.70;1.37;;;1.60;99.90;;;;;;4984254;28;20418;-76
2021/12/02 12:19:37;;;;;;;2.83;0.70;;;1.90;99.90;;;;;;4979733;28;20057;-76
2021/12/02 12:22:07;;;;;;;1.10;0.50;;;2.20;99.90;;;;;;4971860;28;20050;-77
2021/12/02 12:24:47;;;;;;;3.40;0.70;;;2.30;99.90;;;;;;4985011;28;20564;-77
2021/12/02 12:27:27;;;;;;;2.97;0.90;;;2.60;99.90;;;;;;4984105;28;20488;-77
2021/12/02 12:30:09;;;;;;;3.33;0.80;;;2.90;99.90;;;;;;4986460;28;20131;-77
2021/12/02 12:35:14;;;;;;;2.42;1.02;;;3.30;99.90;;;;;;4980788;28;20050;-77
2021/12/02 12:40:26;;;;;;;2.05;0.90;;;3.10;99.90;;;;;;4981827;28;20046;-77
2021/12/02 12:43:11;;;;;;;2.97;1.05;;;3.00;99.90;;;;;;4982793;28;20038;-77
2021/12/02 12:45:41;;;;;;;0.73;0.60;;;2.80;99.90;;;;;;4991039;28;20046;-77
2021/12/02 12:48:17;;;;;;;2.67;1.95;;;2.70;99.90;;;;;;4975685;28;20038;-77
2021/12/02 12:50:45;;;;;;;0.80;0.60;;;2.80;99.90;;;;;;5005955;28;20031;-77
2021/12/02 12:53:16;;;;;;;0.82;0.60;;;3.00;99.90;;;;;;4980403;28;20066;-77
2021/12/02 12:55:59;;;;;;;1.13;0.63;;;3.20;99.90;;;;;;4961334;28;20049;-77
2021/12/02 12:58:28;;;;;;;1.67;0.80;;;3.70;99.90;;;;;;4983956;28;20052;-77
2021/12/02 13:01:05;;;;;;;1.30;0.60;;;4.50;99.90;;;;;;4978180;28;20126;-78
2021/12/02 13:06:15;;;;;;;0.60;0.57;;;5.50;99.90;;;;;;4984331;28;20129;-78
2021/12/02 13:08:46;;;;;;;0.65;0.50;;;5.70;99.90;;;;;;4980515;28;20456;-78
2021/12/02 13:11:18;;;;;;;1.40;0.60;;;5.90;99.90;;;;;;4960968;28;20453;-78
2021/12/02 13:13:45;;;;;;;1.63;0.90;;;5.80;99.90;;;;;;4994241;28;20117;-77
2021/12/02 13:16:17;;;;;;;3.25;0.90;;;5.60;99.90;;;;;;4991831;28;20185;-78
2021/12/02 13:18:57;;;;;;;2.40;0.75;;;5.40;99.90;;;;;;4985385;28;20045;-78
2021/12/02 13:21:32;;;;;;;1.40;0.70;;;5.50;99.90;;;;;;4993044;28;20117;-78
2021/12/02 13:24:00;;;;;;;0.73;0.50;;;5.60;99.90;;;;;;4979333;28;20108;-77
2021/12/02 13:26:27;;;;;;;2.58;0.80;;;5.60;99.90;;;;;;4988962;28;20046;-78
2021/12/02 13:28:56;;;;;;;3.38;0.70;;;5.50;99.90;;;;;;4986444;28;20049;-78
2021/12/02 13:31:24;;;;;;;1.42;0.70;;;5.40;99.90;;;;;;4986812;28;20673;-78
2021/12/02 13:33:58;;;;;;;1.67;0.55;;;5.40;99.90;;;;;;4990619;28;20035;-78
2021/12/02 13:36:51;;;;;;;1.30;0.55;;;5.40;99.90;;;;;;4978637;28;20512;-78